<?xml version="1.0" encoding="UTF-8" standalone="no" ?>
<gpx xmlns="http://www.topografix.com/GPX/1/1" xmlns:xsi="http://www.w3.org/2001/XMLSchema-instance" xsi:schemaLocation="http://www.topografix.com/GPX/1/1 http://www.topografix.com/GPX/1/1/gpx.xsd" version="1.1" creator="VisuGPX - https://www.visugpx.com">
  <metadata>
    <name>boucle st pierre/col de la crusille/st maurice de rot</name>
    <desc><![CDATA[boucle st pierre/col de la crusille/st maurice de rotherens/st pierre]]></desc>
  </metadata>
  <trk>
    <name><![CDATA[Parcours 2014-02-23 14:19]]></name>
    <trkseg>
      <trkpt lat="45.62646" lon="5.72645">
        <ele>720.90002441406</ele>
        <time>2014-02-23T13:19:32Z</time>
      </trkpt>
      <trkpt lat="45.62653" lon="5.72634">
        <ele>715.40002441406</ele>
        <time>2014-02-23T13:20:07Z</time>
      </trkpt>
      <trkpt lat="45.6264" lon="5.72617">
        <ele>714.90002441406</ele>
        <time>2014-02-23T13:20:30Z</time>
      </trkpt>
      <trkpt lat="45.62615" lon="5.72622">
        <ele>717</ele>
        <time>2014-02-23T13:20:53Z</time>
      </trkpt>
      <trkpt lat="45.62594" lon="5.72629">
        <ele>718.5</ele>
        <time>2014-02-23T13:21:16Z</time>
      </trkpt>
      <trkpt lat="45.6256" lon="5.72635">
        <ele>719</ele>
        <time>2014-02-23T13:21:44Z</time>
      </trkpt>
      <trkpt lat="45.6257" lon="5.72621">
        <ele>719.5</ele>
        <time>2014-02-23T13:22:19Z</time>
      </trkpt>
      <trkpt lat="45.62581" lon="5.72607">
        <ele>718.80004882812</ele>
        <time>2014-02-23T13:23:27Z</time>
      </trkpt>
      <trkpt lat="45.62618" lon="5.72583">
        <ele>726.59997558594</ele>
        <time>2014-02-23T13:24:01Z</time>
      </trkpt>
      <trkpt lat="45.62649" lon="5.72546">
        <ele>732.19995117188</ele>
        <time>2014-02-23T13:24:36Z</time>
      </trkpt>
      <trkpt lat="45.62678" lon="5.72525">
        <ele>732.90002441406</ele>
        <time>2014-02-23T13:25:03Z</time>
      </trkpt>
      <trkpt lat="45.62709" lon="5.7249">
        <ele>742.30004882812</ele>
        <time>2014-02-23T13:25:38Z</time>
      </trkpt>
      <trkpt lat="45.62745" lon="5.7247">
        <ele>738</ele>
        <time>2014-02-23T13:26:13Z</time>
      </trkpt>
      <trkpt lat="45.62796" lon="5.7245">
        <ele>738.5</ele>
        <time>2014-02-23T13:26:48Z</time>
      </trkpt>
      <trkpt lat="45.62834" lon="5.72421">
        <ele>744.59997558594</ele>
        <time>2014-02-23T13:27:23Z</time>
      </trkpt>
      <trkpt lat="45.62866" lon="5.72375">
        <ele>740.30004882812</ele>
        <time>2014-02-23T13:27:58Z</time>
      </trkpt>
      <trkpt lat="45.6289" lon="5.7233">
        <ele>743.80004882812</ele>
        <time>2014-02-23T13:28:30Z</time>
      </trkpt>
      <trkpt lat="45.62915" lon="5.72283">
        <ele>749.59997558594</ele>
        <time>2014-02-23T13:29:04Z</time>
      </trkpt>
      <trkpt lat="45.62923" lon="5.72232">
        <ele>750.09997558594</ele>
        <time>2014-02-23T13:29:37Z</time>
      </trkpt>
      <trkpt lat="45.62947" lon="5.72189">
        <ele>755.40002441406</ele>
        <time>2014-02-23T13:30:11Z</time>
      </trkpt>
      <trkpt lat="45.62967" lon="5.72148">
        <ele>756</ele>
        <time>2014-02-23T13:30:45Z</time>
      </trkpt>
      <trkpt lat="45.62989" lon="5.72098">
        <ele>760.5</ele>
        <time>2014-02-23T13:31:19Z</time>
      </trkpt>
      <trkpt lat="45.62951" lon="5.72108">
        <ele>775.59997558594</ele>
        <time>2014-02-23T13:31:54Z</time>
      </trkpt>
      <trkpt lat="45.62918" lon="5.72115">
        <ele>785.19995117188</ele>
        <time>2014-02-23T13:32:21Z</time>
      </trkpt>
      <trkpt lat="45.62895" lon="5.72111">
        <ele>780.30004882812</ele>
        <time>2014-02-23T13:32:55Z</time>
      </trkpt>
      <trkpt lat="45.62869" lon="5.721">
        <ele>774.09997558594</ele>
        <time>2014-02-23T13:33:26Z</time>
      </trkpt>
      <trkpt lat="45.62883" lon="5.72072">
        <ele>778.30004882812</ele>
        <time>2014-02-23T13:33:53Z</time>
      </trkpt>
      <trkpt lat="45.62848" lon="5.72064">
        <ele>793.59997558594</ele>
        <time>2014-02-23T13:34:28Z</time>
      </trkpt>
      <trkpt lat="45.62816" lon="5.72041">
        <ele>804.69995117188</ele>
        <time>2014-02-23T13:35:03Z</time>
      </trkpt>
      <trkpt lat="45.62785" lon="5.72019">
        <ele>801.90002441406</ele>
        <time>2014-02-23T13:35:37Z</time>
      </trkpt>
      <trkpt lat="45.62729" lon="5.72025">
        <ele>802.19995117188</ele>
        <time>2014-02-23T13:36:12Z</time>
      </trkpt>
      <trkpt lat="45.62669" lon="5.72014">
        <ele>808.09997558594</ele>
        <time>2014-02-23T13:36:47Z</time>
      </trkpt>
      <trkpt lat="45.62631" lon="5.72068">
        <ele>820.40002441406</ele>
        <time>2014-02-23T13:37:22Z</time>
      </trkpt>
      <trkpt lat="45.62546" lon="5.72172">
        <ele>816.30004882812</ele>
        <time>2014-02-23T13:37:57Z</time>
      </trkpt>
      <trkpt lat="45.62503" lon="5.72221">
        <ele>813.69995117188</ele>
        <time>2014-02-23T13:38:31Z</time>
      </trkpt>
      <trkpt lat="45.6246" lon="5.7225">
        <ele>813.30004882812</ele>
        <time>2014-02-23T13:39:05Z</time>
      </trkpt>
      <trkpt lat="45.62418" lon="5.72272">
        <ele>815.30004882812</ele>
        <time>2014-02-23T13:39:37Z</time>
      </trkpt>
      <trkpt lat="45.62389" lon="5.72306">
        <ele>817.90002441406</ele>
        <time>2014-02-23T13:40:04Z</time>
      </trkpt>
      <trkpt lat="45.62354" lon="5.72316">
        <ele>806.59997558594</ele>
        <time>2014-02-23T13:40:38Z</time>
      </trkpt>
      <trkpt lat="45.6234" lon="5.72343">
        <ele>797.40002441406</ele>
        <time>2014-02-23T13:41:01Z</time>
      </trkpt>
      <trkpt lat="45.62311" lon="5.72377">
        <ele>796.90002441406</ele>
        <time>2014-02-23T13:41:26Z</time>
      </trkpt>
      <trkpt lat="45.62286" lon="5.72397">
        <ele>790</ele>
        <time>2014-02-23T13:41:49Z</time>
      </trkpt>
      <trkpt lat="45.6225" lon="5.72434">
        <ele>792.5</ele>
        <time>2014-02-23T13:42:22Z</time>
      </trkpt>
      <trkpt lat="45.62211" lon="5.72445">
        <ele>793.90002441406</ele>
        <time>2014-02-23T13:42:47Z</time>
      </trkpt>
      <trkpt lat="45.62194" lon="5.72459">
        <ele>793.69995117188</ele>
        <time>2014-02-23T13:43:21Z</time>
      </trkpt>
      <trkpt lat="45.62156" lon="5.72443">
        <ele>806.59997558594</ele>
        <time>2014-02-23T13:43:51Z</time>
      </trkpt>
      <trkpt lat="45.6214" lon="5.72389">
        <ele>807.09997558594</ele>
        <time>2014-02-23T13:44:26Z</time>
      </trkpt>
      <trkpt lat="45.62104" lon="5.72354">
        <ele>819.40002441406</ele>
        <time>2014-02-23T13:45:01Z</time>
      </trkpt>
      <trkpt lat="45.6205" lon="5.72156">
        <ele>840.69995117188</ele>
        <time>2014-02-23T13:45:35Z</time>
      </trkpt>
      <trkpt lat="45.62075" lon="5.72102">
        <ele>840</ele>
        <time>2014-02-23T13:46:10Z</time>
      </trkpt>
      <trkpt lat="45.62107" lon="5.72037">
        <ele>841</ele>
        <time>2014-02-23T13:46:45Z</time>
      </trkpt>
      <trkpt lat="45.62132" lon="5.7197">
        <ele>839.09997558594</ele>
        <time>2014-02-23T13:47:22Z</time>
      </trkpt>
      <trkpt lat="45.62154" lon="5.71913">
        <ele>834.90002441406</ele>
        <time>2014-02-23T13:47:57Z</time>
      </trkpt>
      <trkpt lat="45.62137" lon="5.71849">
        <ele>836.09997558594</ele>
        <time>2014-02-23T13:48:32Z</time>
      </trkpt>
      <trkpt lat="45.62113" lon="5.71808">
        <ele>831.09997558594</ele>
        <time>2014-02-23T13:49:07Z</time>
      </trkpt>
      <trkpt lat="45.62075" lon="5.71757">
        <ele>832.30004882812</ele>
        <time>2014-02-23T13:49:41Z</time>
      </trkpt>
      <trkpt lat="45.62059" lon="5.71696">
        <ele>828</ele>
        <time>2014-02-23T13:50:16Z</time>
      </trkpt>
      <trkpt lat="45.62014" lon="5.71688">
        <ele>830.40002441406</ele>
        <time>2014-02-23T13:50:50Z</time>
      </trkpt>
      <trkpt lat="45.61992" lon="5.71728">
        <ele>835.59997558594</ele>
        <time>2014-02-23T13:51:24Z</time>
      </trkpt>
      <trkpt lat="45.61942" lon="5.71765">
        <ele>829.80004882812</ele>
        <time>2014-02-23T13:51:58Z</time>
      </trkpt>
      <trkpt lat="45.61911" lon="5.71794">
        <ele>821.90002441406</ele>
        <time>2014-02-23T13:52:25Z</time>
      </trkpt>
      <trkpt lat="45.61882" lon="5.71817">
        <ele>825.30004882812</ele>
        <time>2014-02-23T13:52:48Z</time>
      </trkpt>
      <trkpt lat="45.61834" lon="5.71824">
        <ele>823.09997558594</ele>
        <time>2014-02-23T13:53:23Z</time>
      </trkpt>
      <trkpt lat="45.61782" lon="5.71819">
        <ele>827.09997558594</ele>
        <time>2014-02-23T13:53:58Z</time>
      </trkpt>
      <trkpt lat="45.61733" lon="5.71817">
        <ele>833.09997558594</ele>
        <time>2014-02-23T13:54:33Z</time>
      </trkpt>
      <trkpt lat="45.6168" lon="5.71811">
        <ele>811.90002441406</ele>
        <time>2014-02-23T13:55:08Z</time>
      </trkpt>
      <trkpt lat="45.61643" lon="5.71808">
        <ele>808.69995117188</ele>
        <time>2014-02-23T13:55:33Z</time>
      </trkpt>
      <trkpt lat="45.61598" lon="5.71804">
        <ele>815.90002441406</ele>
        <time>2014-02-23T13:56:05Z</time>
      </trkpt>
      <trkpt lat="45.61586" lon="5.71793">
        <ele>799.40002441406</ele>
        <time>2014-02-23T13:56:32Z</time>
      </trkpt>
      <trkpt lat="45.61562" lon="5.71833">
        <ele>806.5</ele>
        <time>2014-02-23T13:58:12Z</time>
      </trkpt>
      <trkpt lat="45.6154" lon="5.71849">
        <ele>812.19995117188</ele>
        <time>2014-02-23T13:58:35Z</time>
      </trkpt>
      <trkpt lat="45.61505" lon="5.71899">
        <ele>828.80004882812</ele>
        <time>2014-02-23T13:59:04Z</time>
      </trkpt>
      <trkpt lat="45.61472" lon="5.71931">
        <ele>822.59997558594</ele>
        <time>2014-02-23T13:59:39Z</time>
      </trkpt>
      <trkpt lat="45.61444" lon="5.71964">
        <ele>811.59997558594</ele>
        <time>2014-02-23T14:00:13Z</time>
      </trkpt>
      <trkpt lat="45.61411" lon="5.71989">
        <ele>806.30004882812</ele>
        <time>2014-02-23T14:00:48Z</time>
      </trkpt>
      <trkpt lat="45.61365" lon="5.72009">
        <ele>805.80004882812</ele>
        <time>2014-02-23T14:01:23Z</time>
      </trkpt>
      <trkpt lat="45.61318" lon="5.72024">
        <ele>801.5</ele>
        <time>2014-02-23T14:01:58Z</time>
      </trkpt>
      <trkpt lat="45.61267" lon="5.7204">
        <ele>802</ele>
        <time>2014-02-23T14:02:21Z</time>
      </trkpt>
      <trkpt lat="45.61238" lon="5.72051">
        <ele>794.59997558594</ele>
        <time>2014-02-23T14:02:51Z</time>
      </trkpt>
      <trkpt lat="45.61228" lon="5.72048">
        <ele>789.5</ele>
        <time>2014-02-23T14:03:25Z</time>
      </trkpt>
      <trkpt lat="45.61178" lon="5.72048">
        <ele>796</ele>
        <time>2014-02-23T14:04:00Z</time>
      </trkpt>
      <trkpt lat="45.61131" lon="5.72051">
        <ele>796</ele>
        <time>2014-02-23T14:04:34Z</time>
      </trkpt>
      <trkpt lat="45.61085" lon="5.72049">
        <ele>793.09997558594</ele>
        <time>2014-02-23T14:05:09Z</time>
      </trkpt>
      <trkpt lat="45.61037" lon="5.72041">
        <ele>794.90002441406</ele>
        <time>2014-02-23T14:05:40Z</time>
      </trkpt>
      <trkpt lat="45.61002" lon="5.72043">
        <ele>793.09997558594</ele>
        <time>2014-02-23T14:06:05Z</time>
      </trkpt>
      <trkpt lat="45.60964" lon="5.72067">
        <ele>809</ele>
        <time>2014-02-23T14:06:31Z</time>
      </trkpt>
      <trkpt lat="45.60927" lon="5.72052">
        <ele>799.30004882812</ele>
        <time>2014-02-23T14:07:00Z</time>
      </trkpt>
      <trkpt lat="45.60927" lon="5.72103">
        <ele>799.40002441406</ele>
        <time>2014-02-23T14:07:31Z</time>
      </trkpt>
      <trkpt lat="45.60917" lon="5.72165">
        <ele>802.69995117188</ele>
        <time>2014-02-23T14:08:06Z</time>
      </trkpt>
      <trkpt lat="45.60914" lon="5.72211">
        <ele>802.5</ele>
        <time>2014-02-23T14:08:37Z</time>
      </trkpt>
      <trkpt lat="45.60901" lon="5.72272">
        <ele>794.69995117188</ele>
        <time>2014-02-23T14:09:12Z</time>
      </trkpt>
      <trkpt lat="45.60868" lon="5.72298">
        <ele>792.5</ele>
        <time>2014-02-23T14:09:35Z</time>
      </trkpt>
      <trkpt lat="45.60837" lon="5.72336">
        <ele>808.09997558594</ele>
        <time>2014-02-23T14:10:03Z</time>
      </trkpt>
      <trkpt lat="45.60847" lon="5.72375">
        <ele>798</ele>
        <time>2014-02-23T14:10:31Z</time>
      </trkpt>
      <trkpt lat="45.60855" lon="5.72432">
        <ele>807.19995117188</ele>
        <time>2014-02-23T14:10:59Z</time>
      </trkpt>
      <trkpt lat="45.60879" lon="5.7249">
        <ele>818.69995117188</ele>
        <time>2014-02-23T14:11:33Z</time>
      </trkpt>
      <trkpt lat="45.60904" lon="5.72508">
        <ele>805.80004882812</ele>
        <time>2014-02-23T14:12:07Z</time>
      </trkpt>
      <trkpt lat="45.60867" lon="5.72565">
        <ele>811</ele>
        <time>2014-02-23T14:12:42Z</time>
      </trkpt>
      <trkpt lat="45.60851" lon="5.72599">
        <ele>799.90002441406</ele>
        <time>2014-02-23T14:13:17Z</time>
      </trkpt>
      <trkpt lat="45.60842" lon="5.72621">
        <ele>806.40002441406</ele>
        <time>2014-02-23T14:13:52Z</time>
      </trkpt>
      <trkpt lat="45.60805" lon="5.72656">
        <ele>795.19995117188</ele>
        <time>2014-02-23T14:14:26Z</time>
      </trkpt>
      <trkpt lat="45.60761" lon="5.72698">
        <ele>798.90002441406</ele>
        <time>2014-02-23T14:15:00Z</time>
      </trkpt>
      <trkpt lat="45.60733" lon="5.72738">
        <ele>790.80004882812</ele>
        <time>2014-02-23T14:15:34Z</time>
      </trkpt>
      <trkpt lat="45.60641" lon="5.72718">
        <ele>801.09997558594</ele>
        <time>2014-02-23T14:16:08Z</time>
      </trkpt>
      <trkpt lat="45.60578" lon="5.7271">
        <ele>796.69995117188</ele>
        <time>2014-02-23T14:16:36Z</time>
      </trkpt>
      <trkpt lat="45.60531" lon="5.72705">
        <ele>792.69995117188</ele>
        <time>2014-02-23T14:17:11Z</time>
      </trkpt>
      <trkpt lat="45.60495" lon="5.72688">
        <ele>802.40002441406</ele>
        <time>2014-02-23T14:17:34Z</time>
      </trkpt>
      <trkpt lat="45.60476" lon="5.72696">
        <ele>792.80004882812</ele>
        <time>2014-02-23T14:18:02Z</time>
      </trkpt>
      <trkpt lat="45.6047" lon="5.72728">
        <ele>784.5</ele>
        <time>2014-02-23T14:18:37Z</time>
      </trkpt>
      <trkpt lat="45.60453" lon="5.72796">
        <ele>773.40002441406</ele>
        <time>2014-02-23T14:19:09Z</time>
      </trkpt>
      <trkpt lat="45.60398" lon="5.72836">
        <ele>787.40002441406</ele>
        <time>2014-02-23T14:19:44Z</time>
      </trkpt>
      <trkpt lat="45.60355" lon="5.72803">
        <ele>791.90002441406</ele>
        <time>2014-02-23T14:20:19Z</time>
      </trkpt>
      <trkpt lat="45.60273" lon="5.72804">
        <ele>781.69995117188</ele>
        <time>2014-02-23T14:20:54Z</time>
      </trkpt>
      <trkpt lat="45.60202" lon="5.72816">
        <ele>782.09997558594</ele>
        <time>2014-02-23T14:21:29Z</time>
      </trkpt>
      <trkpt lat="45.60155" lon="5.72828">
        <ele>779.59997558594</ele>
        <time>2014-02-23T14:21:57Z</time>
      </trkpt>
      <trkpt lat="45.60085" lon="5.72827">
        <ele>773.90002441406</ele>
        <time>2014-02-23T14:22:31Z</time>
      </trkpt>
      <trkpt lat="45.60029" lon="5.72751">
        <ele>789</ele>
        <time>2014-02-23T14:23:11Z</time>
      </trkpt>
      <trkpt lat="45.59978" lon="5.72696">
        <ele>783.80004882812</ele>
        <time>2014-02-23T14:23:45Z</time>
      </trkpt>
      <trkpt lat="45.59961" lon="5.72639">
        <ele>782</ele>
        <time>2014-02-23T14:24:19Z</time>
      </trkpt>
      <trkpt lat="45.59938" lon="5.72631">
        <ele>777.19995117188</ele>
        <time>2014-02-23T14:24:54Z</time>
      </trkpt>
      <trkpt lat="45.599" lon="5.7263">
        <ele>759.69995117188</ele>
        <time>2014-02-23T14:25:26Z</time>
      </trkpt>
      <trkpt lat="45.59878" lon="5.72634">
        <ele>753</ele>
        <time>2014-02-23T14:25:50Z</time>
      </trkpt>
      <trkpt lat="45.59872" lon="5.72653">
        <ele>741.40002441406</ele>
        <time>2014-02-23T14:26:17Z</time>
      </trkpt>
      <trkpt lat="45.59851" lon="5.72663">
        <ele>741.5</ele>
        <time>2014-02-23T14:26:46Z</time>
      </trkpt>
      <trkpt lat="45.59846" lon="5.72675">
        <ele>740</ele>
        <time>2014-02-23T14:27:18Z</time>
      </trkpt>
      <trkpt lat="45.59849" lon="5.72717">
        <ele>733.90002441406</ele>
        <time>2014-02-23T14:27:47Z</time>
      </trkpt>
      <trkpt lat="45.59873" lon="5.72781">
        <ele>724.59997558594</ele>
        <time>2014-02-23T14:28:18Z</time>
      </trkpt>
      <trkpt lat="45.59906" lon="5.72833">
        <ele>722.19995117188</ele>
        <time>2014-02-23T14:28:50Z</time>
      </trkpt>
      <trkpt lat="45.59859" lon="5.72859">
        <ele>712.80004882812</ele>
        <time>2014-02-23T14:29:25Z</time>
      </trkpt>
      <trkpt lat="45.59878" lon="5.729">
        <ele>703</ele>
        <time>2014-02-23T14:29:57Z</time>
      </trkpt>
      <trkpt lat="45.59845" lon="5.72946">
        <ele>690.80004882812</ele>
        <time>2014-02-23T14:30:32Z</time>
      </trkpt>
      <trkpt lat="45.59809" lon="5.72953">
        <ele>691.69995117188</ele>
        <time>2014-02-23T14:30:58Z</time>
      </trkpt>
      <trkpt lat="45.59815" lon="5.72972">
        <ele>683.30004882812</ele>
        <time>2014-02-23T14:31:21Z</time>
      </trkpt>
      <trkpt lat="45.59793" lon="5.73">
        <ele>677.30004882812</ele>
        <time>2014-02-23T14:31:50Z</time>
      </trkpt>
      <trkpt lat="45.59761" lon="5.73018">
        <ele>669.19995117188</ele>
        <time>2014-02-23T14:32:17Z</time>
      </trkpt>
      <trkpt lat="45.5975" lon="5.73036">
        <ele>664.40002441406</ele>
        <time>2014-02-23T14:32:41Z</time>
      </trkpt>
      <trkpt lat="45.59742" lon="5.73068">
        <ele>650</ele>
        <time>2014-02-23T14:33:09Z</time>
      </trkpt>
      <trkpt lat="45.59721" lon="5.731">
        <ele>656.40002441406</ele>
        <time>2014-02-23T14:33:32Z</time>
      </trkpt>
      <trkpt lat="45.59703" lon="5.73138">
        <ele>641.59997558594</ele>
        <time>2014-02-23T14:34:03Z</time>
      </trkpt>
      <trkpt lat="45.59678" lon="5.73152">
        <ele>635.30004882812</ele>
        <time>2014-02-23T14:34:38Z</time>
      </trkpt>
      <trkpt lat="45.59632" lon="5.73132">
        <ele>644.69995117188</ele>
        <time>2014-02-23T14:35:12Z</time>
      </trkpt>
      <trkpt lat="45.5961" lon="5.73118">
        <ele>643.59997558594</ele>
        <time>2014-02-23T14:35:47Z</time>
      </trkpt>
      <trkpt lat="45.59585" lon="5.73093">
        <ele>644.5</ele>
        <time>2014-02-23T14:36:51Z</time>
      </trkpt>
      <trkpt lat="45.59562" lon="5.73059">
        <ele>650.30004882812</ele>
        <time>2014-02-23T14:37:26Z</time>
      </trkpt>
      <trkpt lat="45.59536" lon="5.7302">
        <ele>649.80004882812</ele>
        <time>2014-02-23T14:38:01Z</time>
      </trkpt>
      <trkpt lat="45.59501" lon="5.72975">
        <ele>651.30004882812</ele>
        <time>2014-02-23T14:38:34Z</time>
      </trkpt>
      <trkpt lat="45.59496" lon="5.72922">
        <ele>645.40002441406</ele>
        <time>2014-02-23T14:39:08Z</time>
      </trkpt>
      <trkpt lat="45.59495" lon="5.72897">
        <ele>646.59997558594</ele>
        <time>2014-02-23T14:39:35Z</time>
      </trkpt>
      <trkpt lat="45.59485" lon="5.72898">
        <ele>637.19995117188</ele>
        <time>2014-02-23T14:40:09Z</time>
      </trkpt>
      <trkpt lat="45.59492" lon="5.72889">
        <ele>637</ele>
        <time>2014-02-23T14:40:44Z</time>
      </trkpt>
      <trkpt lat="45.59491" lon="5.72856">
        <ele>636.59997558594</ele>
        <time>2014-02-23T14:41:19Z</time>
      </trkpt>
      <trkpt lat="45.59471" lon="5.72852">
        <ele>629.19995117188</ele>
        <time>2014-02-23T14:41:54Z</time>
      </trkpt>
      <trkpt lat="45.59438" lon="5.72869">
        <ele>626.90002441406</ele>
        <time>2014-02-23T14:42:29Z</time>
      </trkpt>
      <trkpt lat="45.59419" lon="5.72826">
        <ele>620.09997558594</ele>
        <time>2014-02-23T14:43:04Z</time>
      </trkpt>
      <trkpt lat="45.59399" lon="5.7283">
        <ele>617.19995117188</ele>
        <time>2014-02-23T14:43:35Z</time>
      </trkpt>
      <trkpt lat="45.59387" lon="5.72831">
        <ele>623.40002441406</ele>
        <time>2014-02-23T14:44:00Z</time>
      </trkpt>
      <trkpt lat="45.59399" lon="5.72783">
        <ele>610.09997558594</ele>
        <time>2014-02-23T14:45:22Z</time>
      </trkpt>
      <trkpt lat="45.5943" lon="5.72742">
        <ele>610</ele>
        <time>2014-02-23T14:45:46Z</time>
      </trkpt>
      <trkpt lat="45.59454" lon="5.72698">
        <ele>600.5</ele>
        <time>2014-02-23T14:46:15Z</time>
      </trkpt>
      <trkpt lat="45.5949" lon="5.72636">
        <ele>596.90002441406</ele>
        <time>2014-02-23T14:46:50Z</time>
      </trkpt>
      <trkpt lat="45.59475" lon="5.72583">
        <ele>597.5</ele>
        <time>2014-02-23T14:47:17Z</time>
      </trkpt>
      <trkpt lat="45.59494" lon="5.72543">
        <ele>588.90002441406</ele>
        <time>2014-02-23T14:47:43Z</time>
      </trkpt>
      <trkpt lat="45.59513" lon="5.72504">
        <ele>595.19995117188</ele>
        <time>2014-02-23T14:48:12Z</time>
      </trkpt>
      <trkpt lat="45.59533" lon="5.72496">
        <ele>609.80004882812</ele>
        <time>2014-02-23T14:49:23Z</time>
      </trkpt>
      <trkpt lat="45.59551" lon="5.72512">
        <ele>601.40002441406</ele>
        <time>2014-02-23T14:49:48Z</time>
      </trkpt>
      <trkpt lat="45.59565" lon="5.72482">
        <ele>613.09997558594</ele>
        <time>2014-02-23T14:50:13Z</time>
      </trkpt>
      <trkpt lat="45.5958" lon="5.72492">
        <ele>615.59997558594</ele>
        <time>2014-02-23T14:51:22Z</time>
      </trkpt>
      <trkpt lat="45.59571" lon="5.72491">
        <ele>627</ele>
        <time>2014-02-23T14:54:09Z</time>
      </trkpt>
      <trkpt lat="45.5958" lon="5.72487">
        <ele>610</ele>
        <time>2014-02-23T14:55:52Z</time>
      </trkpt>
      <trkpt lat="45.59569" lon="5.72501">
        <ele>611.09997558594</ele>
        <time>2014-02-23T14:57:32Z</time>
      </trkpt>
      <trkpt lat="45.59579" lon="5.7249">
        <ele>609.90002441406</ele>
        <time>2014-02-23T14:58:30Z</time>
      </trkpt>
      <trkpt lat="45.59593" lon="5.72473">
        <ele>610.90002441406</ele>
        <time>2014-02-23T14:59:04Z</time>
      </trkpt>
      <trkpt lat="45.59603" lon="5.72436">
        <ele>611.69995117188</ele>
        <time>2014-02-23T14:59:39Z</time>
      </trkpt>
      <trkpt lat="45.59644" lon="5.72378">
        <ele>607.5</ele>
        <time>2014-02-23T15:00:09Z</time>
      </trkpt>
      <trkpt lat="45.59686" lon="5.72319">
        <ele>621.19995117188</ele>
        <time>2014-02-23T15:00:43Z</time>
      </trkpt>
      <trkpt lat="45.59722" lon="5.72279">
        <ele>605.90002441406</ele>
        <time>2014-02-23T15:01:17Z</time>
      </trkpt>
      <trkpt lat="45.59765" lon="5.72286">
        <ele>605.80004882812</ele>
        <time>2014-02-23T15:01:41Z</time>
      </trkpt>
      <trkpt lat="45.59822" lon="5.72266">
        <ele>601.80004882812</ele>
        <time>2014-02-23T15:02:16Z</time>
      </trkpt>
      <trkpt lat="45.59861" lon="5.72238">
        <ele>602.90002441406</ele>
        <time>2014-02-23T15:02:44Z</time>
      </trkpt>
      <trkpt lat="45.59921" lon="5.72166">
        <ele>614.5</ele>
        <time>2014-02-23T15:03:18Z</time>
      </trkpt>
      <trkpt lat="45.59962" lon="5.72112">
        <ele>626.30004882812</ele>
        <time>2014-02-23T15:03:52Z</time>
      </trkpt>
      <trkpt lat="45.60014" lon="5.72054">
        <ele>624.59997558594</ele>
        <time>2014-02-23T15:04:26Z</time>
      </trkpt>
      <trkpt lat="45.60037" lon="5.72">
        <ele>628.5</ele>
        <time>2014-02-23T15:04:56Z</time>
      </trkpt>
      <trkpt lat="45.60069" lon="5.71949">
        <ele>637.80004882812</ele>
        <time>2014-02-23T15:05:28Z</time>
      </trkpt>
      <trkpt lat="45.60097" lon="5.71917">
        <ele>637</ele>
        <time>2014-02-23T15:05:50Z</time>
      </trkpt>
      <trkpt lat="45.60127" lon="5.7189">
        <ele>644.30004882812</ele>
        <time>2014-02-23T15:06:14Z</time>
      </trkpt>
      <trkpt lat="45.60166" lon="5.71844">
        <ele>641.30004882812</ele>
        <time>2014-02-23T15:06:49Z</time>
      </trkpt>
      <trkpt lat="45.60207" lon="5.7181">
        <ele>647.30004882812</ele>
        <time>2014-02-23T15:07:17Z</time>
      </trkpt>
      <trkpt lat="45.60245" lon="5.71751">
        <ele>644</ele>
        <time>2014-02-23T15:07:51Z</time>
      </trkpt>
      <trkpt lat="45.60257" lon="5.71685">
        <ele>650.19995117188</ele>
        <time>2014-02-23T15:08:14Z</time>
      </trkpt>
      <trkpt lat="45.60293" lon="5.71666">
        <ele>650.09997558594</ele>
        <time>2014-02-23T15:08:40Z</time>
      </trkpt>
      <trkpt lat="45.60326" lon="5.71628">
        <ele>653.90002441406</ele>
        <time>2014-02-23T15:09:09Z</time>
      </trkpt>
      <trkpt lat="45.60358" lon="5.71569">
        <ele>650.80004882812</ele>
        <time>2014-02-23T15:09:41Z</time>
      </trkpt>
      <trkpt lat="45.60378" lon="5.71529">
        <ele>645.90002441406</ele>
        <time>2014-02-23T15:10:04Z</time>
      </trkpt>
      <trkpt lat="45.604" lon="5.71486">
        <ele>649.19995117188</ele>
        <time>2014-02-23T15:10:27Z</time>
      </trkpt>
      <trkpt lat="45.60427" lon="5.71437">
        <ele>646.09997558594</ele>
        <time>2014-02-23T15:10:58Z</time>
      </trkpt>
      <trkpt lat="45.60452" lon="5.71373">
        <ele>639.09997558594</ele>
        <time>2014-02-23T15:11:21Z</time>
      </trkpt>
      <trkpt lat="45.60452" lon="5.71313">
        <ele>638</ele>
        <time>2014-02-23T15:11:44Z</time>
      </trkpt>
      <trkpt lat="45.60466" lon="5.71267">
        <ele>642.69995117188</ele>
        <time>2014-02-23T15:12:07Z</time>
      </trkpt>
      <trkpt lat="45.60498" lon="5.71229">
        <ele>643.90002441406</ele>
        <time>2014-02-23T15:12:30Z</time>
      </trkpt>
      <trkpt lat="45.60544" lon="5.71189">
        <ele>649.5</ele>
        <time>2014-02-23T15:12:59Z</time>
      </trkpt>
      <trkpt lat="45.60613" lon="5.71156">
        <ele>660.69995117188</ele>
        <time>2014-02-23T15:13:30Z</time>
      </trkpt>
      <trkpt lat="45.60649" lon="5.71145">
        <ele>667.80004882812</ele>
        <time>2014-02-23T15:13:53Z</time>
      </trkpt>
      <trkpt lat="45.60683" lon="5.71132">
        <ele>668.30004882812</ele>
        <time>2014-02-23T15:14:20Z</time>
      </trkpt>
      <trkpt lat="45.60754" lon="5.71086">
        <ele>671.30004882812</ele>
        <time>2014-02-23T15:14:43Z</time>
      </trkpt>
      <trkpt lat="45.60796" lon="5.71041">
        <ele>658.5</ele>
        <time>2014-02-23T15:15:08Z</time>
      </trkpt>
      <trkpt lat="45.6081" lon="5.70985">
        <ele>668.90002441406</ele>
        <time>2014-02-23T15:15:32Z</time>
      </trkpt>
      <trkpt lat="45.60851" lon="5.70926">
        <ele>663.09997558594</ele>
        <time>2014-02-23T15:16:06Z</time>
      </trkpt>
      <trkpt lat="45.60894" lon="5.70887">
        <ele>668.40002441406</ele>
        <time>2014-02-23T15:16:37Z</time>
      </trkpt>
      <trkpt lat="45.60936" lon="5.7085">
        <ele>676.80004882812</ele>
        <time>2014-02-23T15:17:12Z</time>
      </trkpt>
      <trkpt lat="45.60977" lon="5.70797">
        <ele>669.90002441406</ele>
        <time>2014-02-23T15:17:47Z</time>
      </trkpt>
      <trkpt lat="45.61018" lon="5.70739">
        <ele>670.5</ele>
        <time>2014-02-23T15:18:22Z</time>
      </trkpt>
      <trkpt lat="45.61112" lon="5.70629">
        <ele>674.90002441406</ele>
        <time>2014-02-23T15:18:57Z</time>
      </trkpt>
      <trkpt lat="45.61187" lon="5.70537">
        <ele>680.09997558594</ele>
        <time>2014-02-23T15:19:24Z</time>
      </trkpt>
      <trkpt lat="45.61211" lon="5.70485">
        <ele>680.40002441406</ele>
        <time>2014-02-23T15:19:53Z</time>
      </trkpt>
      <trkpt lat="45.61221" lon="5.70432">
        <ele>671.40002441406</ele>
        <time>2014-02-23T15:20:22Z</time>
      </trkpt>
      <trkpt lat="45.61233" lon="5.7038">
        <ele>667.69995117188</ele>
        <time>2014-02-23T15:20:47Z</time>
      </trkpt>
      <trkpt lat="45.61244" lon="5.70327">
        <ele>664.90002441406</ele>
        <time>2014-02-23T15:21:12Z</time>
      </trkpt>
      <trkpt lat="45.61283" lon="5.70275">
        <ele>663.30004882812</ele>
        <time>2014-02-23T15:21:40Z</time>
      </trkpt>
      <trkpt lat="45.613" lon="5.70223">
        <ele>660.80004882812</ele>
        <time>2014-02-23T15:22:05Z</time>
      </trkpt>
      <trkpt lat="45.61318" lon="5.70164">
        <ele>664.90002441406</ele>
        <time>2014-02-23T15:22:33Z</time>
      </trkpt>
      <trkpt lat="45.61339" lon="5.70109">
        <ele>662.69995117188</ele>
        <time>2014-02-23T15:22:58Z</time>
      </trkpt>
      <trkpt lat="45.61355" lon="5.70044">
        <ele>666.69995117188</ele>
        <time>2014-02-23T15:23:23Z</time>
      </trkpt>
      <trkpt lat="45.6137" lon="5.7">
        <ele>672.5</ele>
        <time>2014-02-23T15:23:47Z</time>
      </trkpt>
      <trkpt lat="45.61377" lon="5.69952">
        <ele>672.09997558594</ele>
        <time>2014-02-23T15:24:33Z</time>
      </trkpt>
      <trkpt lat="45.61379" lon="5.69888">
        <ele>666.40002441406</ele>
        <time>2014-02-23T15:25:01Z</time>
      </trkpt>
      <trkpt lat="45.61417" lon="5.69859">
        <ele>669.90002441406</ele>
        <time>2014-02-23T15:25:30Z</time>
      </trkpt>
      <trkpt lat="45.61474" lon="5.69925">
        <ele>681.69995117188</ele>
        <time>2014-02-23T15:25:56Z</time>
      </trkpt>
      <trkpt lat="45.61521" lon="5.69957">
        <ele>689.5</ele>
        <time>2014-02-23T15:26:19Z</time>
      </trkpt>
      <trkpt lat="45.6153" lon="5.7001">
        <ele>677.40002441406</ele>
        <time>2014-02-23T15:26:54Z</time>
      </trkpt>
      <trkpt lat="45.61546" lon="5.69983">
        <ele>689</ele>
        <time>2014-02-23T15:28:03Z</time>
      </trkpt>
      <trkpt lat="45.61563" lon="5.69946">
        <ele>688.80004882812</ele>
        <time>2014-02-23T15:28:30Z</time>
      </trkpt>
      <trkpt lat="45.61562" lon="5.69914">
        <ele>682.90002441406</ele>
        <time>2014-02-23T15:29:00Z</time>
      </trkpt>
      <trkpt lat="45.61549" lon="5.69844">
        <ele>688.90002441406</ele>
        <time>2014-02-23T15:29:35Z</time>
      </trkpt>
      <trkpt lat="45.61522" lon="5.69757">
        <ele>684.5</ele>
        <time>2014-02-23T15:30:09Z</time>
      </trkpt>
      <trkpt lat="45.61541" lon="5.69701">
        <ele>693.90002441406</ele>
        <time>2014-02-23T15:30:33Z</time>
      </trkpt>
      <trkpt lat="45.61576" lon="5.69661">
        <ele>693</ele>
        <time>2014-02-23T15:31:04Z</time>
      </trkpt>
      <trkpt lat="45.61601" lon="5.6962">
        <ele>700.80004882812</ele>
        <time>2014-02-23T15:31:29Z</time>
      </trkpt>
      <trkpt lat="45.61628" lon="5.6959">
        <ele>697.40002441406</ele>
        <time>2014-02-23T15:31:53Z</time>
      </trkpt>
      <trkpt lat="45.61667" lon="5.69565">
        <ele>699.59997558594</ele>
        <time>2014-02-23T15:32:16Z</time>
      </trkpt>
      <trkpt lat="45.61703" lon="5.69555">
        <ele>704.19995117188</ele>
        <time>2014-02-23T15:32:39Z</time>
      </trkpt>
      <trkpt lat="45.61732" lon="5.69534">
        <ele>713.80004882812</ele>
        <time>2014-02-23T15:33:02Z</time>
      </trkpt>
      <trkpt lat="45.61727" lon="5.69492">
        <ele>711.90002441406</ele>
        <time>2014-02-23T15:33:26Z</time>
      </trkpt>
      <trkpt lat="45.61709" lon="5.69436">
        <ele>713.19995117188</ele>
        <time>2014-02-23T15:33:55Z</time>
      </trkpt>
      <trkpt lat="45.61689" lon="5.69376">
        <ele>719.59997558594</ele>
        <time>2014-02-23T15:34:25Z</time>
      </trkpt>
      <trkpt lat="45.6166" lon="5.6931">
        <ele>711.59997558594</ele>
        <time>2014-02-23T15:35:00Z</time>
      </trkpt>
      <trkpt lat="45.61628" lon="5.69253">
        <ele>714.69995117188</ele>
        <time>2014-02-23T15:35:29Z</time>
      </trkpt>
      <trkpt lat="45.61599" lon="5.69224">
        <ele>718.30004882812</ele>
        <time>2014-02-23T15:35:52Z</time>
      </trkpt>
      <trkpt lat="45.6156" lon="5.69176">
        <ele>728.40002441406</ele>
        <time>2014-02-23T15:36:22Z</time>
      </trkpt>
      <trkpt lat="45.61557" lon="5.69108">
        <ele>734.19995117188</ele>
        <time>2014-02-23T15:36:53Z</time>
      </trkpt>
      <trkpt lat="45.61586" lon="5.69095">
        <ele>735.30004882812</ele>
        <time>2014-02-23T15:37:16Z</time>
      </trkpt>
      <trkpt lat="45.6162" lon="5.69053">
        <ele>734.80004882812</ele>
        <time>2014-02-23T15:37:46Z</time>
      </trkpt>
      <trkpt lat="45.6165" lon="5.68998">
        <ele>739.80004882812</ele>
        <time>2014-02-23T15:38:19Z</time>
      </trkpt>
      <trkpt lat="45.61634" lon="5.68938">
        <ele>743.30004882812</ele>
        <time>2014-02-23T15:39:23Z</time>
      </trkpt>
      <trkpt lat="45.61649" lon="5.68871">
        <ele>751.69995117188</ele>
        <time>2014-02-23T15:39:47Z</time>
      </trkpt>
      <trkpt lat="45.61682" lon="5.68849">
        <ele>749.30004882812</ele>
        <time>2014-02-23T15:40:11Z</time>
      </trkpt>
      <trkpt lat="45.61712" lon="5.68827">
        <ele>750.90002441406</ele>
        <time>2014-02-23T15:40:34Z</time>
      </trkpt>
      <trkpt lat="45.61745" lon="5.68796">
        <ele>755.40002441406</ele>
        <time>2014-02-23T15:40:57Z</time>
      </trkpt>
      <trkpt lat="45.61847" lon="5.68712">
        <ele>773.19995117188</ele>
        <time>2014-02-23T15:41:32Z</time>
      </trkpt>
      <trkpt lat="45.61898" lon="5.68692">
        <ele>762.40002441406</ele>
        <time>2014-02-23T15:42:06Z</time>
      </trkpt>
      <trkpt lat="45.61945" lon="5.68685">
        <ele>768.09997558594</ele>
        <time>2014-02-23T15:42:40Z</time>
      </trkpt>
      <trkpt lat="45.61976" lon="5.68655">
        <ele>767.30004882812</ele>
        <time>2014-02-23T15:43:15Z</time>
      </trkpt>
      <trkpt lat="45.61996" lon="5.68646">
        <ele>764.90002441406</ele>
        <time>2014-02-23T15:43:49Z</time>
      </trkpt>
      <trkpt lat="45.62022" lon="5.68602">
        <ele>751.59997558594</ele>
        <time>2014-02-23T15:44:17Z</time>
      </trkpt>
      <trkpt lat="45.62057" lon="5.68554">
        <ele>746.09997558594</ele>
        <time>2014-02-23T15:44:49Z</time>
      </trkpt>
      <trkpt lat="45.62098" lon="5.68506">
        <ele>734.40002441406</ele>
        <time>2014-02-23T15:45:24Z</time>
      </trkpt>
      <trkpt lat="45.62157" lon="5.68473">
        <ele>736.59997558594</ele>
        <time>2014-02-23T15:45:59Z</time>
      </trkpt>
      <trkpt lat="45.62206" lon="5.68456">
        <ele>732.09997558594</ele>
        <time>2014-02-23T15:46:32Z</time>
      </trkpt>
      <trkpt lat="45.62256" lon="5.68459">
        <ele>729.30004882812</ele>
        <time>2014-02-23T15:47:07Z</time>
      </trkpt>
      <trkpt lat="45.62299" lon="5.68447">
        <ele>725.30004882812</ele>
        <time>2014-02-23T15:47:36Z</time>
      </trkpt>
      <trkpt lat="45.6235" lon="5.68417">
        <ele>715.69995117188</ele>
        <time>2014-02-23T15:48:10Z</time>
      </trkpt>
      <trkpt lat="45.624" lon="5.68413">
        <ele>709.80004882812</ele>
        <time>2014-02-23T15:48:36Z</time>
      </trkpt>
      <trkpt lat="45.62438" lon="5.68464">
        <ele>718.09997558594</ele>
        <time>2014-02-23T15:49:04Z</time>
      </trkpt>
      <trkpt lat="45.62427" lon="5.68547">
        <ele>726.69995117188</ele>
        <time>2014-02-23T15:49:38Z</time>
      </trkpt>
      <trkpt lat="45.62402" lon="5.68617">
        <ele>729.09997558594</ele>
        <time>2014-02-23T15:50:13Z</time>
      </trkpt>
      <trkpt lat="45.62389" lon="5.68693">
        <ele>730.90002441406</ele>
        <time>2014-02-23T15:50:47Z</time>
      </trkpt>
      <trkpt lat="45.62397" lon="5.68772">
        <ele>732.80004882812</ele>
        <time>2014-02-23T15:51:22Z</time>
      </trkpt>
      <trkpt lat="45.62403" lon="5.68848">
        <ele>735.5</ele>
        <time>2014-02-23T15:51:57Z</time>
      </trkpt>
      <trkpt lat="45.6241" lon="5.68924">
        <ele>736.59997558594</ele>
        <time>2014-02-23T15:52:31Z</time>
      </trkpt>
      <trkpt lat="45.62458" lon="5.68903">
        <ele>742.59997558594</ele>
        <time>2014-02-23T15:53:06Z</time>
      </trkpt>
      <trkpt lat="45.62533" lon="5.68862">
        <ele>756</ele>
        <time>2014-02-23T15:53:39Z</time>
      </trkpt>
      <trkpt lat="45.62658" lon="5.68874">
        <ele>758.90002441406</ele>
        <time>2014-02-23T15:54:14Z</time>
      </trkpt>
      <trkpt lat="45.62785" lon="5.68903">
        <ele>760.90002441406</ele>
        <time>2014-02-23T15:54:49Z</time>
      </trkpt>
      <trkpt lat="45.62835" lon="5.68956">
        <ele>768.90002441406</ele>
        <time>2014-02-23T15:55:23Z</time>
      </trkpt>
      <trkpt lat="45.62872" lon="5.69011">
        <ele>766.69995117188</ele>
        <time>2014-02-23T15:55:58Z</time>
      </trkpt>
      <trkpt lat="45.62904" lon="5.69081">
        <ele>761.19995117188</ele>
        <time>2014-02-23T15:56:33Z</time>
      </trkpt>
      <trkpt lat="45.62927" lon="5.69146">
        <ele>760</ele>
        <time>2014-02-23T15:57:07Z</time>
      </trkpt>
      <trkpt lat="45.6297" lon="5.69213">
        <ele>759.59997558594</ele>
        <time>2014-02-23T15:57:42Z</time>
      </trkpt>
      <trkpt lat="45.63023" lon="5.69264">
        <ele>765.19995117188</ele>
        <time>2014-02-23T15:58:17Z</time>
      </trkpt>
      <trkpt lat="45.63134" lon="5.69376">
        <ele>784.40002441406</ele>
        <time>2014-02-23T15:58:52Z</time>
      </trkpt>
      <trkpt lat="45.63182" lon="5.6938">
        <ele>782.19995117188</ele>
        <time>2014-02-23T15:59:26Z</time>
      </trkpt>
      <trkpt lat="45.63231" lon="5.69348">
        <ele>779.80004882812</ele>
        <time>2014-02-23T16:00:01Z</time>
      </trkpt>
      <trkpt lat="45.63281" lon="5.69314">
        <ele>784.69995117188</ele>
        <time>2014-02-23T16:00:37Z</time>
      </trkpt>
      <trkpt lat="45.63331" lon="5.69301">
        <ele>782.19995117188</ele>
        <time>2014-02-23T16:01:11Z</time>
      </trkpt>
      <trkpt lat="45.63371" lon="5.69376">
        <ele>780.5</ele>
        <time>2014-02-23T16:01:46Z</time>
      </trkpt>
      <trkpt lat="45.63414" lon="5.69434">
        <ele>779.5</ele>
        <time>2014-02-23T16:02:20Z</time>
      </trkpt>
      <trkpt lat="45.63334" lon="5.69493">
        <ele>777.69995117188</ele>
        <time>2014-02-23T16:02:55Z</time>
      </trkpt>
      <trkpt lat="45.63312" lon="5.69551">
        <ele>771.19995117188</ele>
        <time>2014-02-23T16:03:27Z</time>
      </trkpt>
      <trkpt lat="45.63322" lon="5.69611">
        <ele>780.30004882812</ele>
        <time>2014-02-23T16:03:50Z</time>
      </trkpt>
      <trkpt lat="45.63364" lon="5.69653">
        <ele>776.30004882812</ele>
        <time>2014-02-23T16:04:20Z</time>
      </trkpt>
      <trkpt lat="45.6342" lon="5.69691">
        <ele>779.5</ele>
        <time>2014-02-23T16:04:55Z</time>
      </trkpt>
      <trkpt lat="45.63472" lon="5.69725">
        <ele>782.40002441406</ele>
        <time>2014-02-23T16:05:28Z</time>
      </trkpt>
      <trkpt lat="45.635" lon="5.69761">
        <ele>789.30004882812</ele>
        <time>2014-02-23T16:05:53Z</time>
      </trkpt>
      <trkpt lat="45.63516" lon="5.69828">
        <ele>785.69995117188</ele>
        <time>2014-02-23T16:06:28Z</time>
      </trkpt>
      <trkpt lat="45.63502" lon="5.69911">
        <ele>785.69995117188</ele>
        <time>2014-02-23T16:07:03Z</time>
      </trkpt>
      <trkpt lat="45.63465" lon="5.70024">
        <ele>790.80004882812</ele>
        <time>2014-02-23T16:07:32Z</time>
      </trkpt>
      <trkpt lat="45.63521" lon="5.70108">
        <ele>803.59997558594</ele>
        <time>2014-02-23T16:08:06Z</time>
      </trkpt>
      <trkpt lat="45.63522" lon="5.70235">
        <ele>818.09997558594</ele>
        <time>2014-02-23T16:08:40Z</time>
      </trkpt>
      <trkpt lat="45.63544" lon="5.70309">
        <ele>831.69995117188</ele>
        <time>2014-02-23T16:09:14Z</time>
      </trkpt>
      <trkpt lat="45.63494" lon="5.70292">
        <ele>826.40002441406</ele>
        <time>2014-02-23T16:09:49Z</time>
      </trkpt>
      <trkpt lat="45.63449" lon="5.70263">
        <ele>827</ele>
        <time>2014-02-23T16:10:23Z</time>
      </trkpt>
      <trkpt lat="45.63398" lon="5.70286">
        <ele>826.69995117188</ele>
        <time>2014-02-23T16:10:57Z</time>
      </trkpt>
      <trkpt lat="45.63351" lon="5.70307">
        <ele>829.19995117188</ele>
        <time>2014-02-23T16:11:31Z</time>
      </trkpt>
      <trkpt lat="45.63285" lon="5.70323">
        <ele>812.69995117188</ele>
        <time>2014-02-23T16:12:39Z</time>
      </trkpt>
      <trkpt lat="45.63226" lon="5.70316">
        <ele>792.59997558594</ele>
        <time>2014-02-23T16:13:13Z</time>
      </trkpt>
      <trkpt lat="45.63167" lon="5.70313">
        <ele>788</ele>
        <time>2014-02-23T16:13:47Z</time>
      </trkpt>
      <trkpt lat="45.63112" lon="5.70293">
        <ele>792.5</ele>
        <time>2014-02-23T16:14:22Z</time>
      </trkpt>
      <trkpt lat="45.6306" lon="5.70275">
        <ele>794.19995117188</ele>
        <time>2014-02-23T16:14:57Z</time>
      </trkpt>
      <trkpt lat="45.63077" lon="5.70324">
        <ele>805.69995117188</ele>
        <time>2014-02-23T16:15:32Z</time>
      </trkpt>
      <trkpt lat="45.63125" lon="5.70358">
        <ele>811.30004882812</ele>
        <time>2014-02-23T16:16:06Z</time>
      </trkpt>
      <trkpt lat="45.63146" lon="5.70389">
        <ele>834.5</ele>
        <time>2014-02-23T16:16:40Z</time>
      </trkpt>
      <trkpt lat="45.63095" lon="5.70436">
        <ele>825.09997558594</ele>
        <time>2014-02-23T16:17:15Z</time>
      </trkpt>
      <trkpt lat="45.63042" lon="5.70443">
        <ele>839.69995117188</ele>
        <time>2014-02-23T16:17:49Z</time>
      </trkpt>
      <trkpt lat="45.63004" lon="5.70457">
        <ele>844.30004882812</ele>
        <time>2014-02-23T16:18:24Z</time>
      </trkpt>
      <trkpt lat="45.62962" lon="5.70496">
        <ele>843.09997558594</ele>
        <time>2014-02-23T16:18:59Z</time>
      </trkpt>
      <trkpt lat="45.62903" lon="5.70502">
        <ele>843</ele>
        <time>2014-02-23T16:19:33Z</time>
      </trkpt>
      <trkpt lat="45.62845" lon="5.7052">
        <ele>860.90002441406</ele>
        <time>2014-02-23T16:20:07Z</time>
      </trkpt>
      <trkpt lat="45.62795" lon="5.70548">
        <ele>859.69995117188</ele>
        <time>2014-02-23T16:20:42Z</time>
      </trkpt>
      <trkpt lat="45.62736" lon="5.70526">
        <ele>854.30004882812</ele>
        <time>2014-02-23T16:21:16Z</time>
      </trkpt>
      <trkpt lat="45.62687" lon="5.70559">
        <ele>856.59997558594</ele>
        <time>2014-02-23T16:21:50Z</time>
      </trkpt>
      <trkpt lat="45.62644" lon="5.70586">
        <ele>851.09997558594</ele>
        <time>2014-02-23T16:22:24Z</time>
      </trkpt>
      <trkpt lat="45.62631" lon="5.70602">
        <ele>851.19995117188</ele>
        <time>2014-02-23T16:22:59Z</time>
      </trkpt>
      <trkpt lat="45.62603" lon="5.70629">
        <ele>852.40002441406</ele>
        <time>2014-02-23T16:25:46Z</time>
      </trkpt>
      <trkpt lat="45.62564" lon="5.70648">
        <ele>850.80004882812</ele>
        <time>2014-02-23T16:26:21Z</time>
      </trkpt>
      <trkpt lat="45.62525" lon="5.70598">
        <ele>845.19995117188</ele>
        <time>2014-02-23T16:26:56Z</time>
      </trkpt>
      <trkpt lat="45.62526" lon="5.70574">
        <ele>834.80004882812</ele>
        <time>2014-02-23T16:27:28Z</time>
      </trkpt>
      <trkpt lat="45.62513" lon="5.70589">
        <ele>853.69995117188</ele>
        <time>2014-02-23T16:28:03Z</time>
      </trkpt>
      <trkpt lat="45.62483" lon="5.7058">
        <ele>835.30004882812</ele>
        <time>2014-02-23T16:28:37Z</time>
      </trkpt>
      <trkpt lat="45.62439" lon="5.70561">
        <ele>846.30004882812</ele>
        <time>2014-02-23T16:29:11Z</time>
      </trkpt>
      <trkpt lat="45.62456" lon="5.70583">
        <ele>850.69995117188</ele>
        <time>2014-02-23T16:29:45Z</time>
      </trkpt>
      <trkpt lat="45.62505" lon="5.7061">
        <ele>854.80004882812</ele>
        <time>2014-02-23T16:30:19Z</time>
      </trkpt>
      <trkpt lat="45.62542" lon="5.70669">
        <ele>854.30004882812</ele>
        <time>2014-02-23T16:30:54Z</time>
      </trkpt>
      <trkpt lat="45.62586" lon="5.70707">
        <ele>858.5</ele>
        <time>2014-02-23T16:31:28Z</time>
      </trkpt>
      <trkpt lat="45.62624" lon="5.70772">
        <ele>867.69995117188</ele>
        <time>2014-02-23T16:32:03Z</time>
      </trkpt>
      <trkpt lat="45.62656" lon="5.70842">
        <ele>864.69995117188</ele>
        <time>2014-02-23T16:32:37Z</time>
      </trkpt>
      <trkpt lat="45.62721" lon="5.70837">
        <ele>875.69995117188</ele>
        <time>2014-02-23T16:33:12Z</time>
      </trkpt>
      <trkpt lat="45.62836" lon="5.70853">
        <ele>876.30004882812</ele>
        <time>2014-02-23T16:33:46Z</time>
      </trkpt>
      <trkpt lat="45.62846" lon="5.70936">
        <ele>885.5</ele>
        <time>2014-02-23T16:34:20Z</time>
      </trkpt>
      <trkpt lat="45.62876" lon="5.70999">
        <ele>885.09997558594</ele>
        <time>2014-02-23T16:34:54Z</time>
      </trkpt>
      <trkpt lat="45.62853" lon="5.71162">
        <ele>906.90002441406</ele>
        <time>2014-02-23T16:35:28Z</time>
      </trkpt>
      <trkpt lat="45.6282" lon="5.71218">
        <ele>912.40002441406</ele>
        <time>2014-02-23T16:36:03Z</time>
      </trkpt>
      <trkpt lat="45.62765" lon="5.71259">
        <ele>905</ele>
        <time>2014-02-23T16:36:38Z</time>
      </trkpt>
      <trkpt lat="45.62718" lon="5.71284">
        <ele>913.5</ele>
        <time>2014-02-23T16:37:12Z</time>
      </trkpt>
      <trkpt lat="45.62685" lon="5.71333">
        <ele>906.59997558594</ele>
        <time>2014-02-23T16:37:42Z</time>
      </trkpt>
      <trkpt lat="45.62655" lon="5.71326">
        <ele>901.59997558594</ele>
        <time>2014-02-23T16:38:16Z</time>
      </trkpt>
      <trkpt lat="45.62667" lon="5.7134">
        <ele>921.59997558594</ele>
        <time>2014-02-23T16:38:44Z</time>
      </trkpt>
      <trkpt lat="45.6267" lon="5.71327">
        <ele>911.59997558594</ele>
        <time>2014-02-23T16:39:08Z</time>
      </trkpt>
      <trkpt lat="45.6266" lon="5.71327">
        <ele>930.09997558594</ele>
        <time>2014-02-23T16:39:43Z</time>
      </trkpt>
      <trkpt lat="45.62669" lon="5.71332">
        <ele>904.80004882812</ele>
        <time>2014-02-23T16:41:03Z</time>
      </trkpt>
      <trkpt lat="45.62672" lon="5.71344">
        <ele>907.80004882812</ele>
        <time>2014-02-23T16:43:40Z</time>
      </trkpt>
      <trkpt lat="45.62653" lon="5.71328">
        <ele>902.40002441406</ele>
        <time>2014-02-23T16:44:15Z</time>
      </trkpt>
      <trkpt lat="45.62664" lon="5.71332">
        <ele>897.90002441406</ele>
        <time>2014-02-23T16:44:47Z</time>
      </trkpt>
      <trkpt lat="45.62662" lon="5.71354">
        <ele>908.59997558594</ele>
        <time>2014-02-23T16:47:29Z</time>
      </trkpt>
      <trkpt lat="45.62664" lon="5.71367">
        <ele>904.90002441406</ele>
        <time>2014-02-23T16:47:55Z</time>
      </trkpt>
      <trkpt lat="45.62656" lon="5.71382">
        <ele>893.40002441406</ele>
        <time>2014-02-23T16:48:25Z</time>
      </trkpt>
      <trkpt lat="45.62616" lon="5.7136">
        <ele>893.30004882812</ele>
        <time>2014-02-23T16:49:33Z</time>
      </trkpt>
      <trkpt lat="45.62564" lon="5.71411">
        <ele>895.69995117188</ele>
        <time>2014-02-23T16:50:07Z</time>
      </trkpt>
      <trkpt lat="45.62509" lon="5.71424">
        <ele>890.40002441406</ele>
        <time>2014-02-23T16:50:38Z</time>
      </trkpt>
      <trkpt lat="45.62465" lon="5.71447">
        <ele>899</ele>
        <time>2014-02-23T16:51:04Z</time>
      </trkpt>
      <trkpt lat="45.62433" lon="5.7144">
        <ele>875.09997558594</ele>
        <time>2014-02-23T16:51:39Z</time>
      </trkpt>
      <trkpt lat="45.62392" lon="5.71488">
        <ele>882</ele>
        <time>2014-02-23T16:52:14Z</time>
      </trkpt>
      <trkpt lat="45.62353" lon="5.71531">
        <ele>887.5</ele>
        <time>2014-02-23T16:52:48Z</time>
      </trkpt>
      <trkpt lat="45.62325" lon="5.71604">
        <ele>864</ele>
        <time>2014-02-23T16:53:21Z</time>
      </trkpt>
      <trkpt lat="45.62312" lon="5.7167">
        <ele>869.59997558594</ele>
        <time>2014-02-23T16:53:50Z</time>
      </trkpt>
      <trkpt lat="45.62306" lon="5.71733">
        <ele>857.59997558594</ele>
        <time>2014-02-23T16:54:16Z</time>
      </trkpt>
      <trkpt lat="45.62307" lon="5.71789">
        <ele>853</ele>
        <time>2014-02-23T16:54:39Z</time>
      </trkpt>
      <trkpt lat="45.62276" lon="5.71852">
        <ele>854</ele>
        <time>2014-02-23T16:55:03Z</time>
      </trkpt>
      <trkpt lat="45.62254" lon="5.71901">
        <ele>854.30004882812</ele>
        <time>2014-02-23T16:55:28Z</time>
      </trkpt>
      <trkpt lat="45.62241" lon="5.71951">
        <ele>850.80004882812</ele>
        <time>2014-02-23T16:55:51Z</time>
      </trkpt>
      <trkpt lat="45.62254" lon="5.72">
        <ele>854.59997558594</ele>
        <time>2014-02-23T16:56:19Z</time>
      </trkpt>
      <trkpt lat="45.62297" lon="5.71975">
        <ele>853.69995117188</ele>
        <time>2014-02-23T16:56:46Z</time>
      </trkpt>
      <trkpt lat="45.62354" lon="5.72007">
        <ele>852.69995117188</ele>
        <time>2014-02-23T16:57:21Z</time>
      </trkpt>
      <trkpt lat="45.62394" lon="5.71994">
        <ele>837.30004882812</ele>
        <time>2014-02-23T16:57:44Z</time>
      </trkpt>
      <trkpt lat="45.62417" lon="5.71959">
        <ele>835.69995117188</ele>
        <time>2014-02-23T16:58:08Z</time>
      </trkpt>
      <trkpt lat="45.62446" lon="5.71913">
        <ele>837.69995117188</ele>
        <time>2014-02-23T16:58:33Z</time>
      </trkpt>
      <trkpt lat="45.62492" lon="5.71877">
        <ele>845.19995117188</ele>
        <time>2014-02-23T16:59:07Z</time>
      </trkpt>
      <trkpt lat="45.6255" lon="5.7189">
        <ele>841.80004882812</ele>
        <time>2014-02-23T16:59:41Z</time>
      </trkpt>
      <trkpt lat="45.62582" lon="5.71935">
        <ele>828.30004882812</ele>
        <time>2014-02-23T17:00:15Z</time>
      </trkpt>
      <trkpt lat="45.62609" lon="5.71976">
        <ele>823.80004882812</ele>
        <time>2014-02-23T17:00:46Z</time>
      </trkpt>
      <trkpt lat="45.62629" lon="5.72007">
        <ele>811.80004882812</ele>
        <time>2014-02-23T17:01:10Z</time>
      </trkpt>
      <trkpt lat="45.62637" lon="5.7206">
        <ele>812.40002441406</ele>
        <time>2014-02-23T17:01:42Z</time>
      </trkpt>
      <trkpt lat="45.62661" lon="5.72018">
        <ele>809.40002441406</ele>
        <time>2014-02-23T17:02:08Z</time>
      </trkpt>
      <trkpt lat="45.62679" lon="5.71991">
        <ele>809.19995117188</ele>
        <time>2014-02-23T17:02:37Z</time>
      </trkpt>
      <trkpt lat="45.62726" lon="5.72005">
        <ele>801.40002441406</ele>
        <time>2014-02-23T17:03:12Z</time>
      </trkpt>
      <trkpt lat="45.62795" lon="5.72007">
        <ele>797.30004882812</ele>
        <time>2014-02-23T17:03:46Z</time>
      </trkpt>
      <trkpt lat="45.62838" lon="5.72037">
        <ele>816.19995117188</ele>
        <time>2014-02-23T17:04:20Z</time>
      </trkpt>
      <trkpt lat="45.62869" lon="5.72067">
        <ele>792.80004882812</ele>
        <time>2014-02-23T17:04:55Z</time>
      </trkpt>
      <trkpt lat="45.62876" lon="5.72094">
        <ele>777.5</ele>
        <time>2014-02-23T17:05:30Z</time>
      </trkpt>
      <trkpt lat="45.62891" lon="5.72098">
        <ele>780</ele>
        <time>2014-02-23T17:06:04Z</time>
      </trkpt>
      <trkpt lat="45.62931" lon="5.7209">
        <ele>773.19995117188</ele>
        <time>2014-02-23T17:06:38Z</time>
      </trkpt>
      <trkpt lat="45.62972" lon="5.72085">
        <ele>766.40002441406</ele>
        <time>2014-02-23T17:07:13Z</time>
      </trkpt>
      <trkpt lat="45.62983" lon="5.72131">
        <ele>762.69995117188</ele>
        <time>2014-02-23T17:07:48Z</time>
      </trkpt>
      <trkpt lat="45.62946" lon="5.72184">
        <ele>747.90002441406</ele>
        <time>2014-02-23T17:08:22Z</time>
      </trkpt>
      <trkpt lat="45.6292" lon="5.72247">
        <ele>747.69995117188</ele>
        <time>2014-02-23T17:08:57Z</time>
      </trkpt>
      <trkpt lat="45.62897" lon="5.72309">
        <ele>745.30004882812</ele>
        <time>2014-02-23T17:09:32Z</time>
      </trkpt>
      <trkpt lat="45.62868" lon="5.7237">
        <ele>744.80004882812</ele>
        <time>2014-02-23T17:10:07Z</time>
      </trkpt>
      <trkpt lat="45.62819" lon="5.72434">
        <ele>732.40002441406</ele>
        <time>2014-02-23T17:10:42Z</time>
      </trkpt>
      <trkpt lat="45.62774" lon="5.72463">
        <ele>735.30004882812</ele>
        <time>2014-02-23T17:11:16Z</time>
      </trkpt>
      <trkpt lat="45.62721" lon="5.72485">
        <ele>730.30004882812</ele>
        <time>2014-02-23T17:11:51Z</time>
      </trkpt>
      <trkpt lat="45.62685" lon="5.72523">
        <ele>735.69995117188</ele>
        <time>2014-02-23T17:12:26Z</time>
      </trkpt>
      <trkpt lat="45.62645" lon="5.72562">
        <ele>724.5</ele>
        <time>2014-02-23T17:13:01Z</time>
      </trkpt>
      <trkpt lat="45.62602" lon="5.72592">
        <ele>719.5</ele>
        <time>2014-02-23T17:13:36Z</time>
      </trkpt>
      <trkpt lat="45.62586" lon="5.72603">
        <ele>713.90002441406</ele>
        <time>2014-02-23T17:14:10Z</time>
      </trkpt>
      <trkpt lat="45.62572" lon="5.72612">
        <ele>718.69995117188</ele>
        <time>2014-02-23T17:14:44Z</time>
      </trkpt>
      <trkpt lat="45.62562" lon="5.72628">
        <ele>713.80004882812</ele>
        <time>2014-02-23T17:15:18Z</time>
      </trkpt>
      <trkpt lat="45.62622" lon="5.72622">
        <ele>727.30004882812</ele>
        <time>2014-02-23T17:15:53Z</time>
      </trkpt>
      <trkpt lat="45.62666" lon="5.72619">
        <ele>725.09997558594</ele>
        <time>2014-02-23T17:16:23Z</time>
      </trkpt>
      <trkpt lat="45.6263" lon="5.72652">
        <ele>719.90002441406</ele>
        <time>2014-02-23T17:16:58Z</time>
      </trkpt>
    </trkseg>
  </trk>
</gpx>